Time;durP1;ratioP1;P1;durP2;ratioP2;P2;SDS_P1;SDS_P2;PMS_P1;PMS_P2;Temp;Humidity;BMP_temperature;BMP_pressure;BME280_temperature;BME280_humidity;BME280_pressure;Samples;Min_cycle;Max_cycle;Signal;HPM_P1;HPM_P2
2024/03/20 00:00:22;;;;;;;1.60;1.50;;;;;;;5.68;50.43;100571.75;4476006;31;32206;-82
2024/03/20 00:02:49;;;;;;;0.57;0.57;;;;;;;5.71;49.98;100574.34;4451171;31;35231;-82
2024/03/20 00:05:18;;;;;;;1.20;1.20;;;;;;;5.47;50.77;100575.47;4455213;31;32624;-82
2024/03/20 00:07:44;;;;;;;2.85;1.77;;;;;;;5.38;50.67;100560.72;4463887;31;32440;-82
2024/03/20 00:10:16;;;;;;;0.70;0.70;;;;;;;5.61;50.31;100567.47;4458165;31;33823;-81
2024/03/20 00:12:42;;;;;;;0.13;0.13;;;;;;;5.47;50.71;100575.47;4475449;31;34203;-82
2024/03/20 00:15:09;;;;;;;0.47;0.47;;;;;;;5.62;50.35;100566.59;4458601;31;34053;-82
2024/03/20 00:17:36;;;;;;;1.60;1.50;;;;;;;5.40;50.77;100574.66;4452048;31;34625;-82
2024/03/20 00:20:03;;;;;;;0.88;0.85;;;;;;;5.35;51.13;100573.84;4462614;31;32284;-82
2024/03/20 00:22:35;;;;;;;0.85;0.82;;;;;;;5.48;50.88;100577.22;4469523;31;34556;-82
2024/03/20 00:25:02;;;;;;;1.35;1.25;;;;;;;5.45;50.77;100572.00;4448346;31;33051;-82
2024/03/20 00:27:28;;;;;;;0.35;0.08;;;;;;;5.39;51.01;100567.69;4492008;31;34137;-82
2024/03/20 00:29:55;;;;;;;0.70;0.70;;;;;;;5.23;51.38;100568.75;4464020;31;32728;-82
2024/03/20 00:32:22;;;;;;;0.28;0.28;;;;;;;5.12;51.83;100567.94;4439924;31;34428;-82
2024/03/20 00:34:48;;;;;;;1.00;1.00;;;;;;;5.31;51.07;100574.75;4466033;31;32701;-81
2024/03/20 00:37:15;;;;;;;0.93;0.62;;;;;;;5.19;51.51;100564.41;4476646;31;34094;-82
2024/03/20 00:39:42;;;;;;;4.60;2.92;;;;;;;5.24;51.62;100560.00;4446202;31;33235;-82
2024/03/20 00:42:09;;;;;;;2.97;2.78;;;;;;;5.10;51.72;100564.50;4471799;31;32819;-81
2024/03/20 00:44:36;;;;;;;1.27;1.25;;;;;;;5.13;51.35;100559.25;4465476;31;32064;-81
2024/03/20 00:47:04;;;;;;;0.80;0.80;;;;;;;5.06;51.47;100568.00;4462043;31;35479;-81
2024/03/20 00:49:31;;;;;;;0.30;0.30;;;;;;;5.07;51.63;100564.50;4483782;31;33311;-81
2024/03/20 00:51:58;;;;;;;0.43;0.43;;;;;;;5.11;51.54;100572.31;4470648;31;33079;-81
2024/03/20 00:54:25;;;;;;;1.50;1.40;;;;;;;4.99;51.74;100566.34;4472324;31;33276;-81
2024/03/20 00:56:52;;;;;;;1.23;1.15;;;;;;;4.82;52.34;100564.72;4462738;31;32905;-81
2024/03/20 00:59:20;;;;;;;0.90;0.90;;;;;;;4.87;52.42;100562.94;4469469;31;31874;-81
2024/03/20 01:01:47;;;;;;;0.73;0.73;;;;;;;4.80;52.37;100565.63;4469492;31;34482;-81
2024/03/20 01:04:16;;;;;;;1.90;1.80;;;;;;;4.76;52.51;100556.06;4469020;31;33240;-81
2024/03/20 01:06:44;;;;;;;0.65;0.65;;;;;;;4.92;52.28;100556.81;4471585;31;33387;-82
2024/03/20 01:09:11;;;;;;;0.80;0.52;;;;;;;5.00;51.61;100547.12;4468644;31;34446;-81
2024/03/20 01:11:37;;;;;;;0.20;0.20;;;;;;;4.87;52.19;100546.38;4472211;31;34501;-81
2024/03/20 01:14:03;;;;;;;1.62;1.42;;;;;;;5.01;51.59;100543.62;4474513;31;33741;-81
2024/03/20 01:16:31;;;;;;;0.35;0.35;;;;;;;4.85;51.82;100543.78;4481453;31;34954;-81
2024/03/20 01:18:57;;;;;;;1.17;1.08;;;;;;;4.89;51.62;100536.78;4473330;31;32894;-82
2024/03/20 01:21:24;;;;;;;0.47;0.47;;;;;;;4.94;51.76;100539.31;4485142;31;34177;-81
2024/03/20 01:23:51;;;;;;;3.50;2.47;;;;;;;4.95;51.74;100538.47;4464678;31;35752;-81
2024/03/20 01:26:19;;;;;;;1.08;0.75;;;;;;;4.92;51.54;100538.47;4472476;31;33547;-81
2024/03/20 01:28:45;;;;;;;5.18;1.80;;;;;;;4.87;52.00;100533.28;4471308;31;32910;-81
2024/03/20 01:31:12;;;;;;;0.65;0.65;;;;;;;4.78;51.96;100536.84;4457507;31;33806;-81
2024/03/20 01:33:39;;;;;;;3.70;3.42;;;;;;;5.02;51.36;100532.28;4464419;31;32983;-82
2024/03/20 01:36:06;;;;;;;3.92;2.70;;;;;;;4.81;52.30;100536.84;4478815;31;34023;-82
2024/03/20 01:38:32;;;;;;;3.03;2.30;;;;;;;4.75;52.49;100542.13;4456741;31;33255;-81
2024/03/20 01:40:59;;;;;;;3.05;2.58;;;;;;;4.95;52.20;100533.22;4464036;31;33451;-82
2024/03/20 01:43:26;;;;;;;0.82;0.82;;;;;;;4.76;52.50;100533.38;4474045;31;33445;-82
2024/03/20 01:45:53;;;;;;;0.90;0.90;;;;;;;4.66;53.06;100530.88;4458258;31;33712;-81
2024/03/20 01:48:19;;;;;;;1.23;1.23;;;;;;;4.44;53.52;100538.00;4477639;31;32387;-81
2024/03/20 01:50:46;;;;;;;0.52;0.52;;;;;;;4.49;53.70;100533.59;4469774;31;33070;-81
2024/03/20 01:53:14;;;;;;;1.20;1.20;;;;;;;4.90;52.09;100532.41;4492739;31;34108;-82
2024/03/20 01:55:41;;;;;;;1.27;1.17;;;;;;;4.47;53.34;100532.75;4473839;31;34155;-81
2024/03/20 01:58:08;;;;;;;2.75;2.65;;;;;;;4.36;53.76;100531.06;4471171;31;32657;-81
2024/03/20 02:00:35;;;;;;;0.68;0.68;;;;;;;4.33;53.96;100538.94;4478032;31;33075;-82
2024/03/20 02:03:03;;;;;;;0.68;0.68;;;;;;;4.45;53.57;100529.25;4469394;31;34784;-81
2024/03/20 02:05:30;;;;;;;1.55;0.75;;;;;;;4.57;53.08;100530.06;4471670;31;33733;-82
2024/03/20 02:07:57;;;;;;;2.15;1.92;;;;;;;4.52;53.36;100530.97;4474148;31;32202;-82
2024/03/20 02:10:24;;;;;;;0.52;0.52;;;;;;;4.43;53.67;100526.66;4459723;31;33999;-83
2024/03/20 02:13:04;;;;;;;3.17;0.85;;;;;;;4.39;53.71;100537.16;4461931;31;33272;-83
2024/03/20 02:15:37;;;;;;;5.32;0.73;;;;;;;4.14;54.26;100537.31;4458288;31;34721;-83
2024/03/20 02:18:05;;;;;;;1.27;1.17;;;;;;;4.08;54.31;100543.44;4464394;31;32435;-83
2024/03/20 02:20:33;;;;;;;1.30;1.27;;;;;;;3.98;54.63;100546.97;4463982;31;33818;-83
2024/03/20 02:22:59;;;;;;;4.15;3.00;;;;;;;4.14;54.32;100546.91;4464075;31;32458;-81
2024/03/20 02:25:30;;;;;;;0.17;0.15;;;;;;;4.09;54.59;100539.09;4483554;31;32328;-81
2024/03/20 02:27:57;;;;;;;0.57;0.57;;;;;;;4.24;54.30;100533.75;4471794;31;32823;-81
2024/03/20 02:30:24;;;;;;;1.35;1.12;;;;;;;4.36;53.67;100543.25;4466482;31;32589;-81
2024/03/20 02:32:51;;;;;;;0.65;0.65;;;;;;;4.38;53.50;100546.75;4474436;31;32613;-81
2024/03/20 02:35:18;;;;;;;0.43;0.43;;;;;;;4.43;53.27;100542.34;4458078;31;34524;-81
2024/03/20 02:37:44;;;;;;;2.22;1.65;;;;;;;4.33;53.39;100548.53;4462423;31;33187;-81
2024/03/20 02:40:11;;;;;;;1.37;1.17;;;;;;;4.38;53.28;100541.53;4485075;31;34418;-81
2024/03/20 02:42:38;;;;;;;0.65;0.65;;;;;;;4.36;53.03;100546.75;4469480;31;33869;-81
2024/03/20 02:45:04;;;;;;;1.45;1.35;;;;;;;4.30;53.48;100553.75;4456312;31;32799;-81
2024/03/20 02:47:31;;;;;;;0.88;0.88;;;;;;;4.17;54.27;100549.47;4487414;31;33578;-81
2024/03/20 02:49:58;;;;;;;0.85;0.80;;;;;;;4.12;54.69;100559.97;4468873;31;34031;-81
2024/03/20 02:52:25;;;;;;;0.30;0.22;;;;;;;4.27;53.85;100553.78;4470970;31;34019;-81
2024/03/20 02:54:51;;;;;;;6.00;2.25;;;;;;;4.35;53.60;100549.37;4458216;31;33324;-84
2024/03/20 02:57:18;;;;;;;3.10;1.45;;;;;;;4.37;53.47;100551.12;4460200;31;35080;-83
2024/03/20 02:59:45;;;;;;;1.15;1.15;;;;;;;4.42;53.01;100555.44;4476082;31;33058;-83
2024/03/20 03:02:11;;;;;;;2.28;2.17;;;;;;;4.43;53.06;100554.56;4465070;31;33918;-84
2024/03/20 03:04:38;;;;;;;0.52;0.47;;;;;;;4.39;53.06;100552.84;4456618;31;33988;-82
2024/03/20 03:07:05;;;;;;;1.15;1.15;;;;;;;4.28;53.50;100550.31;4484606;31;32276;-83
2024/03/20 03:09:31;;;;;;;3.03;1.77;;;;;;;4.25;53.22;100561.63;4467396;31;34139;-83
2024/03/20 03:11:58;;;;;;;2.05;1.85;;;;;;;4.36;53.17;100549.34;4467603;31;32951;-82
2024/03/20 03:14:25;;;;;;;0.90;0.90;;;;;;;4.36;52.87;100554.59;4466852;31;32199;-83
2024/03/20 03:16:51;;;;;;;1.08;1.08;;;;;;;4.24;53.39;100554.69;4472518;31;33306;-82
2024/03/20 03:19:18;;;;;;;0.93;0.93;;;;;;;4.42;52.83;100553.69;4442054;31;35463;-83
2024/03/20 03:21:45;;;;;;;5.47;3.62;;;;;;;4.20;53.18;100555.56;4474448;32;34733;-82
2024/03/20 03:24:11;;;;;;;3.97;1.92;;;;;;;4.44;52.88;100561.53;4459691;31;33178;-83
2024/03/20 03:26:38;;;;;;;2.05;1.95;;;;;;;4.47;52.83;100558.91;4453019;31;34327;-83
2024/03/20 03:29:05;;;;;;;7.32;4.05;;;;;;;4.35;53.02;100563.31;4474647;31;33521;-82
2024/03/20 03:31:32;;;;;;;0.68;0.68;;;;;;;4.42;52.64;100555.44;4458667;31;33501;-83
2024/03/20 03:33:59;;;;;;;1.60;0.95;;;;;;;4.32;52.75;100568.59;4478192;31;34462;-82
2024/03/20 03:36:25;;;;;;;0.75;0.75;;;;;;;4.45;52.40;100568.47;4468349;31;31930;-82
2024/03/20 03:38:52;;;;;;;4.55;2.60;;;;;;;4.46;52.42;100567.59;4471276;31;34620;-83
2024/03/20 03:41:19;;;;;;;5.00;4.30;;;;;;;4.19;53.65;100572.13;4475337;31;35556;-81
2024/03/20 03:43:46;;;;;;;0.65;0.65;;;;;;;3.99;53.67;100576.59;4463202;31;32848;-82
2024/03/20 03:46:12;;;;;;;2.78;2.53;;;;;;;3.93;54.12;100581.81;4474971;31;34078;-81
2024/03/20 03:48:40;;;;;;;1.95;1.85;;;;;;;3.89;54.62;100585.31;4444382;31;34529;-81
2024/03/20 03:51:06;;;;;;;2.55;0.98;;;;;;;3.93;54.25;100585.31;4492859;31;34118;-81
2024/03/20 03:53:34;;;;;;;0.60;0.60;;;;;;;4.13;53.79;100582.63;4466413;31;32926;-82
2024/03/20 03:56:01;;;;;;;4.57;2.33;;;;;;;4.11;53.62;100580.00;4464064;31;33131;-82
2024/03/20 03:58:27;;;;;;;1.55;1.45;;;;;;;3.95;53.99;100587.94;4465809;32;33785;-82
2024/03/20 04:00:54;;;;;;;0.75;0.75;;;;;;;4.02;54.28;100576.56;4473366;31;33228;-82
2024/03/20 04:03:27;;;;;;;2.60;2.50;;;;;;;4.03;53.83;100580.91;4474301;31;34053;-82
2024/03/20 04:05:58;;;;;;;1.37;1.27;;;;;;;4.01;53.92;100573.09;4484206;31;33485;-82
2024/03/20 04:08:25;;;;;;;2.45;2.25;;;;;;;3.99;54.12;100589.66;4474482;31;33950;-82
2024/03/20 04:10:52;;;;;;;13.10;1.95;;;;;;;4.07;53.94;100586.13;4466131;31;33630;-82
2024/03/20 04:13:19;;;;;;;2.10;2.00;;;;;;;4.16;53.42;100582.59;4484287;31;33134;-82
2024/03/20 04:15:46;;;;;;;1.27;1.25;;;;;;;4.00;53.92;100584.41;4471431;31;33350;-82
2024/03/20 04:18:13;;;;;;;0.82;0.82;;;;;;;3.97;54.15;100581.81;4467654;31;32601;-82
2024/03/20 04:20:40;;;;;;;2.50;1.37;;;;;;;4.05;53.89;100584.41;4470709;31;34583;-82
2024/03/20 04:23:07;;;;;;;2.17;2.03;;;;;;;3.90;54.18;100593.19;4462242;31;35776;-82
2024/03/20 04:25:34;;;;;;;1.75;1.65;;;;;;;3.78;54.32;100591.47;4464446;31;31806;-82
2024/03/20 04:28:00;;;;;;;3.10;2.37;;;;;;;3.85;54.29;100593.19;4473299;31;34606;-81
2024/03/20 04:30:27;;;;;;;3.92;2.60;;;;;;;3.75;54.40;100588.88;4472283;31;33213;-82
2024/03/20 04:32:54;;;;;;;2.62;2.50;;;;;;;3.53;55.18;100595.03;4473101;31;32541;-82
2024/03/20 04:35:20;;;;;;;11.12;2.97;;;;;;;3.40;55.67;100603.75;4463362;31;33546;-82
2024/03/20 04:37:47;;;;;;;0.70;0.70;;;;;;;3.52;55.22;100606.34;4473248;31;32808;-82
2024/03/20 04:40:14;;;;;;;0.60;0.60;;;;;;;3.64;55.29;100603.69;4470954;31;32454;-82
2024/03/20 04:42:40;;;;;;;1.52;0.62;;;;;;;3.66;54.68;100609.81;4483491;31;33833;-82
2024/03/20 04:45:10;;;;;;;3.05;1.75;;;;;;;3.75;54.65;100612.38;4454471;31;33209;-82
2024/03/20 04:47:37;;;;;;;1.17;1.17;;;;;;;3.73;54.29;100614.13;4476056;31;33697;-82
2024/03/20 04:50:10;;;;;;;3.03;1.65;;;;;;;3.73;54.26;100618.47;4474787;31;33911;-82
2024/03/20 04:52:38;;;;;;;3.03;2.67;;;;;;;3.74;54.72;100618.47;4471925;31;33304;-83
2024/03/20 04:55:06;;;;;;;0.00;0.00;;;;;;;3.89;54.18;100625.38;4477691;31;32278;-82
2024/03/20 04:57:33;;;;;;;1.30;1.20;;;;;;;3.78;54.36;100617.59;4474814;31;34072;-82
2024/03/20 05:00:00;;;;;;;1.05;0.95;;;;;;;3.88;54.10;100615.81;4459881;31;35573;-82
2024/03/20 05:02:26;;;;;;;2.83;2.62;;;;;;;3.82;54.61;100624.53;4486770;31;31985;-82
2024/03/20 05:04:55;;;;;;;2.42;2.10;;;;;;;3.75;54.81;100616.72;4484777;31;32997;-82
2024/03/20 05:07:22;;;;;;;4.53;2.80;;;;;;;3.86;54.19;100625.41;4476036;31;34963;-83
2024/03/20 05:09:49;;;;;;;1.42;1.33;;;;;;;3.64;54.80;100626.34;4467680;31;33581;-82
2024/03/20 05:12:16;;;;;;;0.60;0.57;;;;;;;3.62;55.04;100621.13;4456666;31;33096;-82
2024/03/20 05:14:43;;;;;;;2.40;1.98;;;;;;;3.68;55.22;100628.06;4457630;31;33371;-82
2024/03/20 05:17:09;;;;;;;1.25;1.20;;;;;;;3.57;55.26;100633.31;4473171;31;32801;-82
2024/03/20 05:19:35;;;;;;;0.43;0.43;;;;;;;3.64;55.40;100629.81;4478425;31;33190;-83
2024/03/20 05:22:02;;;;;;;2.95;2.70;;;;;;;3.68;55.32;100628.94;4450591;31;35472;-82
2024/03/20 05:24:29;;;;;;;0.52;0.52;;;;;;;3.73;55.41;100624.56;4470701;31;33133;-82
2024/03/20 05:26:55;;;;;;;1.67;1.58;;;;;;;3.91;54.61;100628.00;4467519;31;32881;-82
2024/03/20 05:29:22;;;;;;;1.12;1.08;;;;;;;3.68;55.31;100625.47;4444944;31;34290;-82
2024/03/20 05:31:49;;;;;;;0.55;0.55;;;;;;;3.71;55.07;100623.72;4470568;31;33707;-84
2024/03/20 05:34:15;;;;;;;1.05;1.05;;;;;;;3.75;55.78;100622.84;4474876;31;34147;-83
2024/03/20 05:36:42;;;;;;;1.12;1.12;;;;;;;4.06;54.84;100623.59;4473796;31;32818;-83
2024/03/20 05:39:11;;;;;;;0.80;0.80;;;;;;;4.20;54.57;100618.31;4462228;31;33831;-83
2024/03/20 05:41:39;;;;;;;3.53;3.25;;;;;;;4.34;54.21;100619.09;4472692;31;34144;-83
2024/03/20 05:44:06;;;;;;;1.40;1.30;;;;;;;4.21;54.70;100622.66;4462606;31;33294;-83
2024/03/20 05:46:33;;;;;;;1.48;1.23;;;;;;;4.44;54.48;100614.69;4469665;31;33138;-81
2024/03/20 05:49:00;;;;;;;2.12;1.60;;;;;;;4.40;54.94;100618.19;4471107;31;33572;-81
2024/03/20 05:51:27;;;;;;;1.27;1.27;;;;;;;4.33;55.18;100619.97;4446866;31;32478;-81
2024/03/20 05:53:53;;;;;;;2.30;2.17;;;;;;;4.49;55.35;100626.00;4456684;31;32941;-81
2024/03/20 05:56:19;;;;;;;1.58;1.42;;;;;;;4.96;53.80;100623.94;4458849;31;33239;-81
2024/03/20 05:58:47;;;;;;;6.22;3.30;;;;;;;4.99;54.11;100623.94;4450103;31;34232;-81
2024/03/20 06:01:13;;;;;;;1.40;1.23;;;;;;;5.18;54.13;100622.03;4474418;31;32886;-81
2024/03/20 06:03:40;;;;;;;9.98;4.05;;;;;;;5.12;54.87;100621.19;4461520;31;34218;-81
2024/03/20 06:06:07;;;;;;;3.33;3.03;;;;;;;5.19;55.00;100624.63;4468051;31;32153;-81
2024/03/20 06:08:33;;;;;;;2.25;2.15;;;;;;;5.29;55.03;100626.28;4466720;31;34648;-82
2024/03/20 06:11:19;;;;;;;3.22;2.97;;;;;;;5.47;54.55;100620.00;4474539;31;32969;-81
2024/03/20 06:13:46;;;;;;;0.45;0.45;;;;;;;5.46;54.29;100626.13;4471337;31;33362;-83
2024/03/20 06:16:13;;;;;;;5.25;3.28;;;;;;;5.39;54.72;100630.53;4461936;31;32811;-82
2024/03/20 06:18:40;;;;;;;2.33;2.00;;;;;;;5.41;54.61;100630.53;4447475;31;34781;-82
2024/03/20 06:21:07;;;;;;;3.12;2.87;;;;;;;5.78;54.22;100627.53;4485298;31;33891;-83
2024/03/20 06:23:34;;;;;;;2.25;2.15;;;;;;;6.11;53.52;100636.81;4458473;31;32605;-82
2024/03/20 06:26:02;;;;;;;1.95;1.85;;;;;;;6.20;52.98;100633.22;4458711;31;34402;-82
2024/03/20 06:28:29;;;;;;;1.37;1.05;;;;;;;6.39;52.53;100635.56;4473939;31;33603;-82
2024/03/20 06:30:55;;;;;;;1.20;1.20;;;;;;;6.63;52.16;100636.13;4474806;31;33463;-82
2024/03/20 06:33:23;;;;;;;0.60;0.60;;;;;;;6.61;52.72;100630.03;4451678;31;34435;-82
2024/03/20 06:35:50;;;;;;;0.93;0.93;;;;;;;6.82;52.10;100634.97;4476648;31;32673;-82
2024/03/20 06:38:19;;;;;;;2.47;2.28;;;;;;;7.00;50.32;100636.44;4468709;31;32492;-81
2024/03/20 06:40:46;;;;;;;1.73;1.62;;;;;;;7.01;50.13;100637.31;4465841;32;35020;-82
2024/03/20 06:43:16;;;;;;;2.55;0.93;;;;;;;6.95;50.32;100633.03;4468288;31;33277;-79
2024/03/20 06:45:47;;;;;;;0.57;0.57;;;;;;;7.21;49.01;100635.22;4469505;31;33749;-79
2024/03/20 06:48:18;;;;;;;0.70;0.70;;;;;;;7.32;48.59;100642.94;4475793;31;34047;-79
2024/03/20 06:50:48;;;;;;;1.10;1.10;;;;;;;7.39;48.05;100640.16;4474731;31;34560;-79
2024/03/20 06:53:15;;;;;;;1.48;1.08;;;;;;;7.78;47.65;100642.09;4448454;31;33168;-78
2024/03/20 06:55:43;;;;;;;1.08;0.75;;;;;;;7.66;47.69;100657.22;4472281;31;32865;-78
2024/03/20 06:58:11;;;;;;;0.10;0.10;;;;;;;7.47;46.60;100653.19;4474911;31;33088;-78
2024/03/20 07:00:38;;;;;;;1.10;1.10;;;;;;;7.62;46.61;100662.56;4469831;31;34090;-78
2024/03/20 07:03:05;;;;;;;1.50;1.45;;;;;;;7.95;46.06;100659.28;4469000;31;33110;-80
2024/03/20 07:05:31;;;;;;;3.28;1.95;;;;;;;8.19;45.25;100657.09;4462206;31;33743;-79
2024/03/20 07:07:59;;;;;;;6.03;2.45;;;;;;;8.42;45.27;100659.28;4481941;31;33528;-80
2024/03/20 07:10:25;;;;;;;1.50;1.40;;;;;;;8.38;44.82;100654.97;4474570;31;34587;-79
2024/03/20 07:12:51;;;;;;;1.25;0.95;;;;;;;8.42;45.07;100652.25;4465119;31;33593;-79
2024/03/20 07:15:18;;;;;;;2.75;1.20;;;;;;;9.04;44.17;100661.41;4461465;31;33725;-79
2024/03/20 07:17:45;;;;;;;3.60;3.03;;;;;;;8.90;43.89;100653.81;4485125;31;34739;-79
2024/03/20 07:20:11;;;;;;;2.17;1.98;;;;;;;9.44;42.15;100656.88;4462158;31;33470;-80
2024/03/20 07:22:38;;;;;;;1.75;1.65;;;;;;;9.44;41.89;100661.28;4470450;31;34145;-80
2024/03/20 07:25:07;;;;;;;2.22;1.92;;;;;;;9.22;41.83;100663.59;4484696;31;33583;-80
2024/03/20 07:27:34;;;;;;;1.35;0.98;;;;;;;9.49;41.31;100665.56;4468986;31;33138;-80
2024/03/20 07:30:03;;;;;;;1.85;1.48;;;;;;;9.44;40.89;100662.12;4486492;31;33860;-79
2024/03/20 07:32:30;;;;;;;1.02;1.02;;;;;;;9.45;41.85;100657.75;4471332;31;32912;-79
2024/03/20 07:34:57;;;;;;;1.27;1.25;;;;;;;9.95;40.41;100659.03;4483837;31;33134;-80
2024/03/20 07:37:25;;;;;;;2.25;1.20;;;;;;;9.64;40.81;100663.44;4472586;31;34007;-80
2024/03/20 07:39:52;;;;;;;1.73;1.62;;;;;;;9.97;40.82;100662.53;4488225;31;34626;-80
2024/03/20 07:42:18;;;;;;;0.98;0.93;;;;;;;10.07;40.15;100657.00;4472775;31;32437;-79
2024/03/20 07:44:47;;;;;;;2.53;2.05;;;;;;;10.23;39.93;100661.78;4471542;31;34966;-80
2024/03/20 07:47:13;;;;;;;0.93;0.93;;;;;;;10.23;39.74;100659.12;4464103;31;32423;-80
2024/03/20 07:49:40;;;;;;;1.35;1.27;;;;;;;10.07;38.76;100662.28;4467754;31;32606;-80
2024/03/20 07:52:07;;;;;;;4.25;1.95;;;;;;;10.63;38.50;100657.13;4470437;31;33031;-80
2024/03/20 07:54:33;;;;;;;2.45;1.10;;;;;;;10.42;38.59;100671.84;4464209;31;32701;-79
2024/03/20 07:57:00;;;;;;;4.85;1.80;;;;;;;10.53;39.50;100661.81;4489839;31;33642;-80
2024/03/20 07:59:27;;;;;;;1.92;1.48;;;;;;;10.86;37.27;100665.22;4467554;31;34947;-80
2024/03/20 08:01:53;;;;;;;4.15;1.98;;;;;;;10.71;38.24;100661.28;4474648;31;31955;-80
2024/03/20 08:04:20;;;;;;;0.95;0.75;;;;;;;11.12;37.47;100663.53;4466921;31;32493;-80
2024/03/20 08:06:47;;;;;;;1.90;1.67;;;;;;;11.38;36.98;100658.25;4469580;31;32839;-80
2024/03/20 08:09:15;;;;;;;2.25;1.87;;;;;;;11.82;36.52;100658.56;4482756;31;34301;-80
2024/03/20 08:11:41;;;;;;;0.68;0.62;;;;;;;11.93;36.83;100656.41;4466872;31;33816;-80
2024/03/20 08:14:08;;;;;;;4.80;2.10;;;;;;;11.87;36.66;100656.63;4476748;31;34296;-80
2024/03/20 08:16:35;;;;;;;2.12;2.03;;;;;;;11.66;35.83;100657.31;4466739;31;34555;-80
2024/03/20 08:19:03;;;;;;;0.65;0.65;;;;;;;12.17;35.05;100648.50;4473451;31;33632;-80
2024/03/20 08:21:29;;;;;;;1.02;0.25;;;;;;;12.07;35.02;100653.25;4482610;31;33352;-80
2024/03/20 08:23:56;;;;;;;2.08;1.62;;;;;;;11.95;35.68;100654.53;4489476;31;33126;-80
2024/03/20 08:26:23;;;;;;;4.75;2.03;;;;;;;12.51;35.53;100648.94;4469031;32;34407;-80
2024/03/20 08:28:50;;;;;;;2.05;1.80;;;;;;;12.24;34.16;100657.91;4466797;31;33970;-80
2024/03/20 08:31:16;;;;;;;1.60;0.95;;;;;;;12.48;34.03;100640.25;4464284;31;32179;-80
2024/03/20 08:33:44;;;;;;;0.88;0.85;;;;;;;12.77;34.36;100649.72;4462689;31;34562;-81
2024/03/20 08:36:12;;;;;;;2.05;1.87;;;;;;;12.84;33.63;100648.56;4483829;31;33470;-80
2024/03/20 08:38:38;;;;;;;3.90;1.52;;;;;;;12.89;33.21;100653.69;4469655;31;32976;-80
2024/03/20 08:41:05;;;;;;;1.45;1.30;;;;;;;13.26;33.14;100645.16;4460911;31;32904;-80
2024/03/20 08:43:33;;;;;;;1.48;1.37;;;;;;;13.06;33.53;100648.59;4457385;31;32808;-79
2024/03/20 08:46:00;;;;;;;1.80;1.58;;;;;;;13.49;32.39;100650.34;4470400;31;33492;-80
2024/03/20 08:48:30;;;;;;;0.85;0.80;;;;;;;13.22;32.28;100649.69;4457847;31;32864;-80
2024/03/20 08:50:57;;;;;;;1.90;1.40;;;;;;;13.34;32.61;100658.97;4468869;31;33015;-80
2024/03/20 08:53:23;;;;;;;1.30;1.20;;;;;;;12.81;32.85;100646.03;4457498;31;32924;-80
2024/03/20 08:55:50;;;;;;;1.37;0.68;;;;;;;13.38;31.90;100647.28;4467669;31;35549;-79
2024/03/20 08:58:18;;;;;;;2.47;0.75;;;;;;;13.34;32.31;100651.00;4483754;31;33906;-80
2024/03/20 09:00:46;;;;;;;0.90;0.62;;;;;;;13.51;32.18;100650.28;4468779;31;33664;-80
2024/03/20 09:03:13;;;;;;;0.37;0.37;;;;;;;13.27;31.27;100646.84;4468202;31;34285;-80
2024/03/20 09:05:41;;;;;;;2.80;1.45;;;;;;;12.56;32.95;100646.13;4473889;31;33020;-79
2024/03/20 09:08:10;;;;;;;1.30;1.20;;;;;;;13.37;33.30;100642.91;4470861;31;33669;-80
2024/03/20 09:10:37;;;;;;;1.52;1.42;;;;;;;13.42;31.57;100643.56;4469360;31;34198;-79
2024/03/20 09:13:03;;;;;;;0.88;0.77;;;;;;;13.95;31.29;100634.22;4485535;31;33704;-80
2024/03/20 09:15:30;;;;;;;4.82;1.75;;;;;;;14.07;30.56;100633.69;4466261;31;32269;-79
2024/03/20 09:17:57;;;;;;;4.22;1.83;;;;;;;13.42;31.44;100643.56;4465777;31;33837;-80
2024/03/20 09:20:28;;;;;;;1.80;1.70;;;;;;;13.28;32.18;100646.78;4468404;31;31411;-79
2024/03/20 09:22:55;;;;;;;2.22;1.95;;;;;;;12.97;31.37;100647.16;4450641;31;33577;-80
2024/03/20 09:25:22;;;;;;;3.40;1.20;;;;;;;13.11;32.66;100648.41;4463032;31;32481;-80
2024/03/20 09:27:48;;;;;;;1.45;1.35;;;;;;;13.36;32.50;100643.81;4463987;31;33505;-80
2024/03/20 09:30:15;;;;;;;2.55;1.85;;;;;;;13.58;32.27;100647.31;4455599;31;32600;-80
2024/03/20 09:32:43;;;;;;;5.07;1.83;;;;;;;14.01;30.93;100633.97;4457633;31;32367;-79
2024/03/20 09:35:10;;;;;;;2.67;1.67;;;;;;;14.20;30.87;100628.69;4481242;31;34884;-80
2024/03/20 09:37:37;;;;;;;0.95;0.90;;;;;;;13.77;31.56;100627.94;4456084;31;32574;-80
2024/03/20 09:40:11;;;;;;;2.50;2.30;;;;;;;14.32;30.85;100628.09;4481831;31;33837;-79
2024/03/20 09:42:43;;;;;;;1.33;1.10;;;;;;;13.78;31.86;100630.53;4473774;31;32451;-79
2024/03/20 09:45:13;;;;;;;1.20;0.85;;;;;;;13.78;32.17;100627.88;4471790;31;32810;-79
2024/03/20 09:47:39;;;;;;;3.03;1.02;;;;;;;14.18;31.70;100618.12;4458408;31;33283;-79
2024/03/20 09:50:12;;;;;;;1.77;1.30;;;;;;;14.31;30.95;100626.38;4476253;31;31704;-79
2024/03/20 09:52:39;;;;;;;0.57;0.57;;;;;;;14.55;31.46;100617.31;4463364;31;33450;-79
2024/03/20 09:55:16;;;;;;;1.85;1.75;;;;;;;14.22;31.22;100613.53;4464460;31;32565;-79
2024/03/20 09:57:45;;;;;;;0.75;0.75;;;;;;;13.79;33.18;100618.12;4470908;31;34359;-80
2024/03/20 10:00:17;;;;;;;1.67;1.62;;;;;;;14.30;32.07;100616.69;4474933;31;33978;-79
2024/03/20 10:02:46;;;;;;;1.90;1.80;;;;;;;14.81;31.54;100612.53;4458991;31;32378;-79
2024/03/20 10:05:13;;;;;;;2.12;1.92;;;;;;;15.04;32.06;100614.06;4461720;31;33336;-79
2024/03/20 10:07:44;;;;;;;1.42;1.33;;;;;;;15.16;30.74;100599.31;4486673;31;34652;-79
2024/03/20 10:10:15;;;;;;;2.80;2.60;;;;;;;15.61;29.71;100599.63;4464622;31;32589;-79
2024/03/20 10:12:45;;;;;;;5.40;3.10;;;;;;;15.73;30.80;100603.50;4481929;31;33858;-79
2024/03/20 10:15:13;;;;;;;2.78;2.58;;;;;;;15.99;28.58;100588.78;4461741;31;33005;-79
2024/03/20 10:17:43;;;;;;;3.00;1.65;;;;;;;16.05;29.09;100583.16;4473294;31;33389;-79
2024/03/20 10:20:17;;;;;;;3.30;1.65;;;;;;;15.38;28.98;100591.97;4461486;31;32448;-79
2024/03/20 10:22:45;;;;;;;2.20;2.10;;;;;;;15.73;29.18;100581.34;4458727;31;34026;-79
2024/03/20 10:25:14;;;;;;;1.30;0.68;;;;;;;15.67;29.63;100581.69;4478999;31;34259;-79
2024/03/20 10:27:40;;;;;;;1.73;1.62;;;;;;;15.96;29.32;100575.66;4470804;31;32775;-80
2024/03/20 10:30:14;;;;;;;1.87;1.67;;;;;;;15.60;29.58;100578.41;4482863;31;32951;-79
2024/03/20 10:32:47;;;;;;;2.42;1.65;;;;;;;15.75;29.43;100568.78;4473569;31;32198;-79
2024/03/20 10:35:23;;;;;;;2.65;1.67;;;;;;;16.11;28.86;100561.50;4459625;31;34091;-79
2024/03/20 10:37:50;;;;;;;4.07;2.40;;;;;;;15.55;28.83;100564.50;4484673;31;33468;-79
2024/03/20 10:40:19;;;;;;;1.37;1.27;;;;;;;15.73;29.12;100563.56;4461584;31;34132;-79
2024/03/20 10:42:47;;;;;;;1.95;1.80;;;;;;;16.48;28.60;100548.81;4468442;31;33275;-79
2024/03/20 10:45:14;;;;;;;1.05;1.05;;;;;;;16.67;28.12;100553.09;4469417;31;32453;-79
2024/03/20 10:47:43;;;;;;;4.00;1.92;;;;;;;16.67;28.06;100537.12;4469639;31;34887;-80
2024/03/20 10:50:18;;;;;;;1.92;1.45;;;;;;;16.72;27.67;100540.41;4470721;31;31595;-79
2024/03/20 10:52:46;;;;;;;2.42;2.22;;;;;;;16.97;27.19;100542.50;4471352;31;33767;-80
2024/03/20 10:55:14;;;;;;;1.27;0.70;;;;;;;17.47;27.21;100538.63;4470155;31;32676;-79
2024/03/20 10:57:42;;;;;;;1.27;1.17;;;;;;;17.12;27.76;100542.44;4465627;31;33319;-79
2024/03/20 11:00:22;;;;;;;0.70;0.70;;;;;;;16.84;27.59;100539.69;4456478;31;32324;-79
2024/03/20 11:02:48;;;;;;;1.12;1.02;;;;;;;17.08;27.13;100532.06;4457644;31;33058;-80
2024/03/20 11:05:34;;;;;;;9.27;1.55;;;;;;;17.05;26.45;100525.09;4451077;31;34754;-81
2024/03/20 11:08:01;;;;;;;1.98;1.55;;;;;;;17.55;26.36;100526.53;4480926;31;32509;-79
2024/03/20 11:10:29;;;;;;;1.73;1.62;;;;;;;17.43;27.02;100527.28;4470483;31;32178;-79
2024/03/20 11:12:57;;;;;;;0.93;0.93;;;;;;;17.74;25.95;100509.41;4484692;31;33078;-80
2024/03/20 11:15:28;;;;;;;3.35;1.80;;;;;;;17.22;27.33;100517.88;4483480;31;33944;-80
2024/03/20 11:17:55;;;;;;;1.52;1.30;;;;;;;17.08;27.42;100514.22;4466719;31;32507;-80
2024/03/20 11:20:34;;;;;;;2.37;2.17;;;;;;;16.95;28.60;100510.59;4484390;31;33281;-80
2024/03/20 11:23:07;;;;;;;2.35;1.92;;;;;;;17.52;26.95;100504.50;4491200;31;33619;-80
2024/03/20 11:25:34;;;;;;;2.05;1.52;;;;;;;17.79;27.05;100507.31;4451624;31;32961;-80
2024/03/20 11:28:01;;;;;;;1.75;0.85;;;;;;;17.67;27.11;100501.75;4474873;31;33936;-80
2024/03/20 11:30:28;;;;;;;13.55;1.75;;;;;;;17.74;27.43;100507.59;4482118;31;33347;-80
2024/03/20 11:32:54;;;;;;;2.12;1.92;;;;;;;17.88;27.29;100496.03;4464966;31;33112;-80